createdAt,value
2022-11-07T00:00:59.030Z,0
2022-11-07T00:01:59.126Z,0
2022-11-07T00:02:59.128Z,0
2022-11-07T00:03:59.015Z,0
2022-11-07T00:04:59.015Z,0
2022-11-07T00:05:59.039Z,0
2022-11-07T00:06:59.022Z,0
2022-11-07T00:07:59.017Z,0
2022-11-07T00:08:59.035Z,0
2022-11-07T00:09:59.023Z,0
2022-11-07T00:10:59.021Z,0
2022-11-07T00:11:59.020Z,0
2022-11-07T00:12:59.022Z,0
2022-11-07T00:13:59.021Z,0
2022-11-07T00:14:59.065Z,0
2022-11-07T00:15:59.024Z,0
2022-11-07T00:16:59.049Z,0
2022-11-07T00:17:59.034Z,0
2022-11-07T00:18:59.032Z,0
2022-11-07T00:19:59.029Z,0
2022-11-07T00:20:59.036Z,0
2022-11-07T00:21:59.033Z,0
2022-11-07T00:22:59.041Z,0
2022-11-07T00:23:59.037Z,0
2022-11-07T00:24:59.041Z,0
2022-11-07T00:25:59.028Z,0
2022-11-07T00:26:59.076Z,0
2022-11-07T00:27:59.043Z,0
2022-11-07T00:28:59.042Z,0
2022-11-07T00:29:59.040Z,0
2022-11-07T00:30:59.038Z,0
2022-11-07T00:31:59.043Z,0
2022-11-07T00:33:00.249Z,0
2022-11-07T00:33:59.058Z,0
2022-11-07T00:34:59.050Z,0
2022-11-07T00:35:59.059Z,0
2022-11-07T00:36:59.059Z,0
2022-11-07T00:37:59.065Z,0
2022-11-07T00:38:59.060Z,0
2022-11-07T00:39:59.054Z,0
2022-11-07T00:40:59.067Z,0
2022-11-07T00:41:59.071Z,0
2022-11-07T00:42:59.062Z,0
2022-11-07T00:43:59.059Z,0
2022-11-07T00:44:59.069Z,0
2022-11-07T00:45:59.073Z,0
2022-11-07T00:46:59.071Z,0
2022-11-07T00:47:59.071Z,0
2022-11-07T00:48:59.093Z,0
2022-11-07T00:49:59.072Z,0
2022-11-07T00:50:59.077Z,0
2022-11-07T00:51:59.069Z,0
2022-11-07T00:52:59.070Z,0
2022-11-07T00:53:59.080Z,0
2022-11-07T00:54:59.082Z,0
2022-11-07T00:55:59.084Z,0
2022-11-07T00:56:59.085Z,0
2022-11-07T00:57:59.085Z,0
2022-11-07T00:58:59.090Z,0
2022-11-07T00:59:59.083Z,0
2022-11-07T01:00:59.093Z,3.6
2022-11-07T01:01:59.240Z,3.5
2022-11-07T01:02:59.215Z,0
2022-11-07T01:03:59.094Z,0
2022-11-07T01:04:59.111Z,4.2
2022-11-07T01:05:59.104Z,3.9000000000000004
2022-11-07T01:06:59.088Z,5.5
2022-11-07T01:07:59.097Z,1.6
2022-11-07T01:08:59.103Z,3.8000000000000003
2022-11-07T01:09:59.097Z,0
2022-11-07T01:10:59.100Z,2.5
2022-11-07T01:11:59.099Z,1.5
2022-11-07T01:12:59.103Z,1
2022-11-07T01:13:59.100Z,0
2022-11-07T01:14:59.105Z,0
2022-11-07T01:15:59.106Z,0
2022-11-07T01:16:59.101Z,0
2022-11-07T01:17:59.105Z,0
2022-11-07T01:18:59.107Z,0
2022-11-07T01:19:59.106Z,0
2022-11-07T01:20:59.131Z,0
2022-11-07T01:21:59.108Z,0
2022-11-07T01:22:59.112Z,0
2022-11-07T01:23:59.112Z,0
2022-11-07T01:24:59.111Z,0
2022-11-07T01:25:59.107Z,4.6000000000000005
2022-11-07T01:26:59.112Z,4.9
2022-11-07T01:27:59.130Z,7.2
2022-11-07T01:28:59.119Z,7.2
2022-11-07T01:29:59.114Z,8.1
2022-11-07T01:30:59.125Z,5.2
2022-11-07T01:31:59.119Z,3.5
2022-11-07T01:32:59.119Z,5.5
2022-11-07T01:33:59.122Z,2.2
2022-11-07T01:34:59.121Z,4.3
2022-11-07T01:36:02.347Z,3.8000000000000003
2022-11-07T01:36:59.147Z,6.1000000000000005
2022-11-07T01:37:59.120Z,5.2
2022-11-07T01:38:59.135Z,4
2022-11-07T01:39:59.121Z,6.6000000000000005
2022-11-07T01:40:59.135Z,6
2022-11-07T01:41:59.145Z,6.7
2022-11-07T01:42:59.129Z,2.5
2022-11-07T01:43:59.133Z,3.1
2022-11-07T01:44:59.130Z,3.4000000000000004
2022-11-07T01:45:59.135Z,3.3000000000000003
2022-11-07T01:46:59.140Z,5.4
2022-11-07T01:47:59.134Z,4.2
2022-11-07T01:48:59.137Z,6.9
2022-11-07T01:49:59.129Z,1
2022-11-07T01:50:59.132Z,3
2022-11-07T01:51:59.145Z,4.4
2022-11-07T01:52:59.160Z,0.5
2022-11-07T01:53:59.152Z,0
2022-11-07T01:54:59.142Z,0
2022-11-07T01:55:59.137Z,0
2022-11-07T01:56:59.146Z,3.1
2022-11-07T01:57:59.139Z,1.6
2022-11-07T01:58:59.142Z,0
2022-11-07T01:59:59.145Z,0
2022-11-07T02:00:59.143Z,0
2022-11-07T02:01:59.313Z,0
2022-11-07T02:02:59.317Z,0
2022-11-07T02:03:59.160Z,0
2022-11-07T02:04:59.155Z,0
2022-11-07T02:05:59.147Z,0
2022-11-07T02:06:59.141Z,0
2022-11-07T02:07:59.151Z,0
2022-11-07T02:08:59.174Z,2.8000000000000003
2022-11-07T02:09:59.171Z,2.1
2022-11-07T02:10:59.156Z,0
2022-11-07T02:11:59.155Z,0
2022-11-07T02:12:59.159Z,0
2022-11-07T02:13:59.156Z,0
2022-11-07T02:14:59.156Z,0
2022-11-07T02:15:59.158Z,0
2022-11-07T02:16:59.154Z,0
2022-11-07T02:17:59.152Z,0
2022-11-07T02:18:59.159Z,0
2022-11-07T02:19:59.158Z,0
2022-11-07T02:20:59.178Z,0
2022-11-07T02:21:59.166Z,0
2022-11-07T02:22:59.164Z,0
2022-11-07T02:23:59.162Z,0
2022-11-07T02:24:59.176Z,0
2022-11-07T02:25:59.161Z,0
2022-11-07T02:26:59.166Z,0
2022-11-07T02:27:59.161Z,3
2022-11-07T02:28:59.177Z,0
2022-11-07T02:29:59.166Z,0
2022-11-07T02:30:59.165Z,0
2022-11-07T02:31:59.162Z,0
2022-11-07T02:32:59.162Z,0
2022-11-07T02:33:59.166Z,0
2022-11-07T02:34:59.175Z,0
2022-11-07T02:35:59.167Z,0
2022-11-07T02:36:59.169Z,0
2022-11-07T02:37:59.179Z,0
2022-11-07T02:38:59.169Z,0
2022-11-07T02:39:59.168Z,1.8
2022-11-07T02:40:59.191Z,0.9
2022-11-07T02:41:59.178Z,0
2022-11-07T02:42:59.167Z,0
2022-11-07T02:43:59.165Z,0
2022-11-07T02:44:59.174Z,0
2022-11-07T02:45:59.181Z,0
2022-11-07T02:46:59.182Z,0
2022-11-07T02:47:59.178Z,0
2022-11-07T02:48:59.175Z,0
2022-11-07T02:49:59.178Z,0
2022-11-07T02:50:59.176Z,0
2022-11-07T02:51:59.180Z,0
2022-11-07T02:52:59.180Z,0
2022-11-07T02:53:59.174Z,0
2022-11-07T02:54:59.179Z,0
2022-11-07T02:55:59.176Z,0
2022-11-07T02:56:59.359Z,0
2022-11-07T02:57:59.171Z,0
2022-11-07T02:58:59.174Z,0
2022-11-07T02:59:59.177Z,0
2022-11-07T03:00:59.173Z,0
2022-11-07T03:01:59.323Z,0
2022-11-07T03:02:59.257Z,0
2022-11-07T03:03:59.184Z,0
2022-11-07T03:04:59.173Z,0
2022-11-07T03:05:59.179Z,0
2022-11-07T03:06:59.185Z,0
2022-11-07T03:07:59.193Z,0
2022-11-07T03:08:59.182Z,0
2022-11-07T03:09:59.191Z,0
2022-11-07T03:10:59.189Z,0
2022-11-07T03:11:59.193Z,0
2022-11-07T03:12:59.210Z,0
2022-11-07T03:13:59.192Z,0
2022-11-07T03:14:59.295Z,0
2022-11-07T03:15:59.196Z,0
2022-11-07T03:16:59.197Z,0
2022-11-07T03:17:59.195Z,0
2022-11-07T03:18:59.195Z,0
2022-11-07T03:19:59.198Z,0
2022-11-07T03:20:59.218Z,0
2022-11-07T03:21:59.208Z,4.3
2022-11-07T03:22:59.207Z,1.5
2022-11-07T03:23:59.198Z,0
2022-11-07T03:24:59.213Z,0
2022-11-07T03:25:59.204Z,0
2022-11-07T03:26:59.215Z,0
2022-11-07T03:27:59.207Z,0
2022-11-07T03:28:59.225Z,0
2022-11-07T03:29:59.208Z,0
2022-11-07T03:30:59.210Z,0
2022-11-07T03:31:59.207Z,0
2022-11-07T03:32:59.212Z,0
2022-11-07T03:33:59.212Z,0
2022-11-07T03:34:59.211Z,0
2022-11-07T03:35:59.215Z,0
2022-11-07T03:36:59.213Z,0
2022-11-07T03:37:59.207Z,0
2022-11-07T03:38:59.224Z,0
2022-11-07T03:39:59.213Z,0
2022-11-07T03:40:59.216Z,0
2022-11-07T03:41:59.223Z,0
2022-11-07T03:42:59.217Z,0
2022-11-07T03:43:59.224Z,0
2022-11-07T03:44:59.244Z,0
2022-11-07T03:45:59.228Z,0
2022-11-07T03:46:59.232Z,0
2022-11-07T03:47:59.232Z,0
2022-11-07T03:48:59.246Z,0
2022-11-07T03:49:59.231Z,0
2022-11-07T03:50:59.238Z,0
2022-11-07T03:51:59.253Z,0
2022-11-07T03:52:59.236Z,0
2022-11-07T03:53:59.249Z,0
2022-11-07T03:54:59.252Z,0
2022-11-07T03:55:59.243Z,0
2022-11-07T03:56:59.249Z,0
2022-11-07T03:57:59.256Z,0
2022-11-07T03:58:59.257Z,0
2022-11-07T03:59:59.256Z,0
2022-11-07T04:00:59.288Z,0
2022-11-07T04:01:59.364Z,0
2022-11-07T04:02:59.336Z,0
2022-11-07T04:03:59.255Z,0
2022-11-07T04:04:59.261Z,0
2022-11-07T04:05:59.264Z,0
2022-11-07T04:06:59.264Z,0
2022-11-07T04:07:59.258Z,0
2022-11-07T04:08:59.263Z,0
2022-11-07T04:09:59.271Z,0
2022-11-07T04:10:59.268Z,0
2022-11-07T04:11:59.270Z,0
2022-11-07T04:12:59.266Z,0
2022-11-07T04:13:59.279Z,0
2022-11-07T04:14:59.274Z,0
2022-11-07T04:15:59.275Z,0
2022-11-07T04:16:59.301Z,0
2022-11-07T04:17:59.279Z,0
2022-11-07T04:18:59.279Z,0
2022-11-07T04:19:59.274Z,0
2022-11-07T04:20:59.289Z,3.3000000000000003
2022-11-07T04:21:59.280Z,0
2022-11-07T04:22:59.286Z,0
2022-11-07T04:23:59.291Z,0
2022-11-07T04:24:59.293Z,0
2022-11-07T04:25:59.292Z,0
2022-11-07T04:26:59.292Z,0
2022-11-07T04:27:59.299Z,0
2022-11-07T04:28:59.293Z,0
2022-11-07T04:29:59.297Z,0
2022-11-07T04:30:59.299Z,0
2022-11-07T04:31:59.301Z,1
2022-11-07T04:32:59.344Z,0
2022-11-07T04:33:59.299Z,0
2022-11-07T04:34:59.307Z,0
2022-11-07T04:35:59.301Z,0
2022-11-07T04:36:59.307Z,0
2022-11-07T04:37:59.341Z,0
2022-11-07T04:38:59.301Z,0
2022-11-07T04:39:59.311Z,3.1
2022-11-07T04:40:59.316Z,3.1
2022-11-07T04:41:59.307Z,2.2
2022-11-07T04:42:59.323Z,1.2000000000000002
2022-11-07T04:43:59.315Z,0
2022-11-07T04:44:59.334Z,0
2022-11-07T04:45:59.315Z,0
2022-11-07T04:46:59.329Z,0
2022-11-07T04:47:59.330Z,0
2022-11-07T04:48:59.358Z,0
2022-11-07T04:49:59.325Z,0
2022-11-07T04:50:59.330Z,0
2022-11-07T04:51:59.344Z,0
2022-11-07T04:52:59.325Z,0
2022-11-07T04:53:59.327Z,0
2022-11-07T04:54:59.336Z,0
2022-11-07T04:55:59.334Z,0
2022-11-07T04:56:59.343Z,0
2022-11-07T04:57:59.336Z,0
2022-11-07T04:58:59.331Z,0
2022-11-07T04:59:59.344Z,0
2022-11-07T05:00:59.350Z,0
2022-11-07T05:01:59.448Z,0
2022-11-07T05:02:59.353Z,0
2022-11-07T05:03:59.340Z,0
2022-11-07T05:04:59.379Z,0
2022-11-07T05:05:59.351Z,0
2022-11-07T05:06:59.365Z,0
2022-11-07T05:07:59.344Z,0
2022-11-07T05:08:59.345Z,0
2022-11-07T05:09:59.343Z,0
2022-11-07T05:10:59.348Z,0
2022-11-07T05:11:59.360Z,0
2022-11-07T05:12:59.351Z,0
2022-11-07T05:13:59.385Z,0
2022-11-07T05:14:59.355Z,0
2022-11-07T05:15:59.360Z,0
2022-11-07T05:16:59.353Z,0
2022-11-07T05:17:59.366Z,0
2022-11-07T05:18:59.362Z,0
2022-11-07T05:19:59.360Z,0
2022-11-07T05:20:59.399Z,0
2022-11-07T05:21:59.368Z,0
2022-11-07T05:22:59.362Z,0
2022-11-07T05:23:59.364Z,0
2022-11-07T05:24:59.370Z,0
2022-11-07T05:25:59.377Z,0
2022-11-07T05:26:59.374Z,0
2022-11-07T05:27:59.382Z,0
2022-11-07T05:28:59.371Z,0
2022-11-07T05:29:59.372Z,0
2022-11-07T05:30:59.379Z,3.6
2022-11-07T05:31:59.382Z,2.8000000000000003
2022-11-07T05:32:59.395Z,1.3
2022-11-07T05:33:59.378Z,1.4000000000000001
2022-11-07T05:34:59.379Z,1.5
2022-11-07T05:35:59.384Z,1.7000000000000002
2022-11-07T05:36:59.403Z,0
2022-11-07T05:37:59.389Z,0
2022-11-07T05:38:59.384Z,0
2022-11-07T05:39:59.385Z,0
2022-11-07T05:40:59.386Z,0
2022-11-07T05:41:59.390Z,0
2022-11-07T05:42:59.389Z,0
2022-11-07T05:43:59.390Z,0
2022-11-07T05:44:59.394Z,0
2022-11-07T05:45:59.391Z,0
2022-11-07T05:46:59.392Z,0
2022-11-07T05:47:59.414Z,0
2022-11-07T05:49:01.038Z,0
2022-11-07T05:49:59.402Z,0
2022-11-07T05:50:59.397Z,0
2022-11-07T05:51:59.402Z,0
2022-11-07T05:52:59.496Z,0
2022-11-07T05:53:59.405Z,0
2022-11-07T05:54:59.407Z,0
2022-11-07T05:55:59.411Z,0
2022-11-07T05:56:59.431Z,0
2022-11-07T05:58:04.238Z,0
2022-11-07T05:58:59.411Z,0
2022-11-07T05:59:59.411Z,0
2022-11-07T06:00:59.415Z,0
2022-11-07T06:01:59.515Z,0
2022-11-07T06:02:59.493Z,0
2022-11-07T06:03:59.413Z,0
2022-11-07T06:04:59.414Z,0
2022-11-07T06:05:59.428Z,0
2022-11-07T06:06:59.419Z,0
2022-11-07T06:07:59.412Z,0
2022-11-07T06:08:59.442Z,0
2022-11-07T06:09:59.422Z,0
2022-11-07T06:10:59.418Z,0
2022-11-07T06:11:59.415Z,0
2022-11-07T06:12:59.420Z,0
2022-11-07T06:13:59.430Z,0
2022-11-07T06:14:59.426Z,0
2022-11-07T06:15:59.423Z,0
2022-11-07T06:16:59.423Z,0
2022-11-07T06:17:59.427Z,0
2022-11-07T06:18:59.432Z,0
2022-11-07T06:19:59.425Z,0
2022-11-07T06:20:59.426Z,0
2022-11-07T06:21:59.425Z,0
2022-11-07T06:22:59.429Z,0
2022-11-07T06:23:59.442Z,0
2022-11-07T06:24:59.488Z,0
2022-11-07T06:25:59.436Z,0
2022-11-07T06:26:59.439Z,0
2022-11-07T06:27:59.433Z,0
2022-11-07T06:28:59.438Z,0
2022-11-07T06:29:59.435Z,0
2022-11-07T06:30:59.438Z,0
2022-11-07T06:31:59.452Z,0
2022-11-07T06:32:59.447Z,0
2022-11-07T06:33:59.438Z,0
2022-11-07T06:34:59.459Z,0
2022-11-07T06:35:59.447Z,0
2022-11-07T06:37:03.046Z,0
2022-11-07T06:37:59.445Z,0
2022-11-07T06:38:59.449Z,0
2022-11-07T06:39:59.457Z,0
2022-11-07T06:40:59.476Z,0
2022-11-07T06:41:59.450Z,0
2022-11-07T06:42:59.442Z,0
2022-11-07T06:43:59.446Z,0
2022-11-07T06:44:59.448Z,0
2022-11-07T06:45:59.450Z,0
2022-11-07T06:46:59.452Z,0
2022-11-07T06:47:59.452Z,0
2022-11-07T06:48:59.446Z,0
2022-11-07T06:49:59.454Z,0
2022-11-07T06:50:59.449Z,0
2022-11-07T06:51:59.455Z,0
2022-11-07T06:52:59.453Z,0
2022-11-07T06:53:59.454Z,0
2022-11-07T06:54:59.477Z,0
2022-11-07T06:55:59.464Z,0
2022-11-07T06:56:59.478Z,0
2022-11-07T06:57:59.463Z,0
2022-11-07T06:58:59.469Z,0
2022-11-07T06:59:59.464Z,0
2022-11-07T07:00:59.514Z,0
2022-11-07T07:01:59.536Z,0
2022-11-07T07:02:59.655Z,0
2022-11-07T07:03:59.471Z,0
2022-11-07T07:04:59.469Z,0
2022-11-07T07:05:59.468Z,0
2022-11-07T07:06:59.468Z,0
2022-11-07T07:07:59.470Z,0
2022-11-07T07:08:59.469Z,0
2022-11-07T07:09:59.475Z,0
2022-11-07T07:10:59.473Z,0
2022-11-07T07:11:59.474Z,0
2022-11-07T07:12:59.494Z,0
2022-11-07T07:14:02.086Z,0
2022-11-07T07:14:59.482Z,0
2022-11-07T07:15:59.468Z,0
2022-11-07T07:16:59.475Z,0
2022-11-07T07:17:59.477Z,0
2022-11-07T07:18:59.477Z,0
2022-11-07T07:19:59.485Z,0
2022-11-07T07:20:59.482Z,0
2022-11-07T07:21:59.482Z,0
2022-11-07T07:23:04.540Z,0
2022-11-07T07:23:59.491Z,0
2022-11-07T07:24:59.480Z,0
2022-11-07T07:25:59.478Z,0
2022-11-07T07:26:59.479Z,0
2022-11-07T07:27:59.477Z,0
2022-11-07T07:28:59.594Z,0
2022-11-07T07:29:59.489Z,0
2022-11-07T07:30:59.477Z,0
2022-11-07T07:31:59.481Z,0
2022-11-07T07:32:59.497Z,0
2022-11-07T07:33:59.477Z,0
2022-11-07T07:34:59.476Z,0
2022-11-07T07:35:59.481Z,0
2022-11-07T07:36:59.486Z,0
2022-11-07T07:37:59.485Z,0
2022-11-07T07:38:59.483Z,0
2022-11-07T07:39:59.483Z,0
2022-11-07T07:40:59.475Z,0
2022-11-07T07:41:59.488Z,0
2022-11-07T07:42:59.486Z,0
2022-11-07T07:43:59.493Z,0
2022-11-07T07:44:59.601Z,0
2022-11-07T07:45:59.508Z,0
2022-11-07T07:46:59.486Z,0
2022-11-07T07:47:59.484Z,0
2022-11-07T07:48:59.486Z,0
2022-11-07T07:49:59.491Z,0
2022-11-07T07:50:59.498Z,1
2022-11-07T07:51:59.483Z,0
2022-11-07T07:53:00.753Z,0
2022-11-07T07:53:59.504Z,0
2022-11-07T07:54:59.490Z,0
2022-11-07T07:55:59.533Z,2
2022-11-07T07:56:59.499Z,1.4000000000000001
2022-11-07T07:57:59.488Z,1.3
2022-11-07T07:58:59.488Z,0.9
2022-11-07T07:59:59.489Z,1.8
2022-11-07T08:00:59.732Z,1.4000000000000001
2022-11-07T08:01:59.587Z,2.4000000000000004
2022-11-07T08:02:59.503Z,0.6000000000000001
2022-11-07T08:04:01.666Z,0
2022-11-07T08:04:59.507Z,0
2022-11-07T08:05:59.502Z,0
2022-11-07T08:06:59.503Z,3.2
2022-11-07T08:07:59.508Z,4.2
2022-11-07T08:08:59.508Z,2.5
2022-11-07T08:10:05.484Z,2.3000000000000003
2022-11-07T08:10:59.513Z,1.9000000000000001
2022-11-07T08:11:59.512Z,5.300000000000001
2022-11-07T08:12:59.524Z,3.3000000000000003
2022-11-07T08:14:01.408Z,6.800000000000001
2022-11-07T08:14:59.511Z,2
2022-11-07T08:15:59.519Z,2.8000000000000003
2022-11-07T08:16:59.636Z,0
2022-11-07T08:17:59.518Z,0
2022-11-07T08:18:59.520Z,0
2022-11-07T08:19:59.521Z,0
2022-11-07T08:20:59.524Z,0
2022-11-07T08:21:59.530Z,3.7
2022-11-07T08:22:59.529Z,2.3000000000000003
2022-11-07T08:23:59.530Z,5.4
2022-11-07T08:24:59.531Z,2.7
2022-11-07T08:25:59.527Z,3
2022-11-07T08:26:59.536Z,5
2022-11-07T08:27:59.530Z,4.7
2022-11-07T08:28:59.549Z,1
2022-11-07T08:29:59.544Z,0.9
2022-11-07T08:30:59.550Z,0
2022-11-07T08:31:59.552Z,0
2022-11-07T08:32:59.569Z,4.1000000000000005
2022-11-07T08:33:59.615Z,4.3
2022-11-07T08:34:59.545Z,3.3000000000000003
2022-11-07T08:35:59.547Z,0
2022-11-07T08:36:59.564Z,0
2022-11-07T08:37:59.550Z,0
2022-11-07T08:38:59.559Z,0
2022-11-07T08:39:59.552Z,0
2022-11-07T08:40:59.565Z,0
2022-11-07T08:41:59.561Z,0
2022-11-07T08:42:59.571Z,0
2022-11-07T08:43:59.558Z,0
2022-11-07T08:44:59.565Z,0
2022-11-07T08:45:59.566Z,0
2022-11-07T08:47:02.144Z,0
2022-11-07T08:47:59.573Z,0
2022-11-07T08:48:59.590Z,0
2022-11-07T08:49:59.612Z,0
2022-11-07T08:50:59.583Z,0
2022-11-07T08:51:59.570Z,0
2022-11-07T08:53:02.619Z,0
2022-11-07T08:53:59.588Z,0
2022-11-07T08:54:59.591Z,0
2022-11-07T08:55:59.584Z,0
2022-11-07T08:56:59.591Z,0
2022-11-07T08:57:59.590Z,0
2022-11-07T08:58:59.589Z,0
2022-11-07T08:59:59.597Z,0
2022-11-07T09:00:59.621Z,0
2022-11-07T09:03:59.790Z,0
2022-11-07T09:04:59.629Z,0
2022-11-07T09:05:59.603Z,0
2022-11-07T09:06:59.600Z,0
2022-11-07T09:07:59.603Z,0
2022-11-07T09:08:59.607Z,0
2022-11-07T09:09:59.624Z,0
2022-11-07T09:10:59.616Z,0
2022-11-07T09:11:59.616Z,0
2022-11-07T09:12:59.611Z,0
2022-11-07T09:13:59.618Z,0
2022-11-07T09:14:59.623Z,0
2022-11-07T09:15:59.617Z,0
2022-11-07T09:16:59.635Z,0
2022-11-07T09:17:59.629Z,0
2022-11-07T09:18:59.623Z,0
2022-11-07T09:19:59.620Z,0
2022-11-07T09:20:59.672Z,0
2022-11-07T09:21:59.621Z,0
2022-11-07T09:22:59.618Z,0
2022-11-07T09:23:59.620Z,0
2022-11-07T09:24:59.623Z,0
2022-11-07T09:25:59.625Z,0
2022-11-07T09:26:59.631Z,0
2022-11-07T09:27:59.626Z,0
2022-11-07T09:29:01.206Z,0
2022-11-07T09:29:59.630Z,0
2022-11-07T09:30:59.636Z,0
2022-11-07T09:32:08.230Z,3.7
2022-11-07T09:32:59.638Z,2.5
2022-11-07T09:33:59.623Z,6
2022-11-07T09:35:04.626Z,4.9
2022-11-07T09:35:59.628Z,6.5
2022-11-07T09:36:59.644Z,4.4
2022-11-07T09:37:59.627Z,4.2
2022-11-07T09:38:59.632Z,3.4000000000000004
2022-11-07T09:39:59.629Z,4.6000000000000005
2022-11-07T09:40:59.633Z,1.7000000000000002
2022-11-07T09:41:59.621Z,5.5
2022-11-07T09:42:59.623Z,2.8000000000000003
2022-11-07T09:43:59.622Z,2.8000000000000003
2022-11-07T09:44:59.633Z,4.3
2022-11-07T09:45:59.623Z,5.1000000000000005
2022-11-07T09:46:59.628Z,5.6000000000000005
2022-11-07T09:47:59.627Z,0.9
2022-11-07T09:48:59.628Z,4.4
2022-11-07T09:49:59.628Z,0
2022-11-07T09:50:59.630Z,0
2022-11-07T09:51:59.635Z,0
2022-11-07T09:52:59.648Z,2.3000000000000003
2022-11-07T09:53:59.622Z,2.2
2022-11-07T09:54:59.627Z,1.1
2022-11-07T09:55:59.631Z,0
2022-11-07T09:56:59.635Z,0
2022-11-07T09:57:59.632Z,3.6
2022-11-07T09:58:59.631Z,3.6
2022-11-07T09:59:59.633Z,2
2022-11-07T10:00:59.656Z,3.8000000000000003
2022-11-07T10:01:59.668Z,2.7
2022-11-07T10:02:59.629Z,5.4
2022-11-07T10:04:59.647Z,3.5
2022-11-07T10:05:59.633Z,2.4000000000000004
2022-11-07T10:06:59.631Z,0
2022-11-07T10:07:59.628Z,0
2022-11-07T10:08:59.660Z,0
2022-11-07T10:09:59.638Z,0
2022-11-07T10:10:59.628Z,1.4000000000000001
2022-11-07T10:11:59.628Z,3
2022-11-07T10:12:59.641Z,1.8
2022-11-07T10:13:59.635Z,1.7000000000000002
2022-11-07T10:14:59.630Z,1.4000000000000001
2022-11-07T10:15:59.630Z,1.7000000000000002
2022-11-07T10:16:59.646Z,0
2022-11-07T10:17:59.638Z,0
2022-11-07T10:18:59.634Z,0.6000000000000001
2022-11-07T10:19:59.638Z,0
2022-11-07T10:21:16.439Z,1.7000000000000002
2022-11-07T10:21:59.633Z,0
2022-11-07T10:22:59.640Z,0
2022-11-07T10:23:59.632Z,0
2022-11-07T10:24:59.662Z,1.2000000000000002
2022-11-07T10:25:59.640Z,0
2022-11-07T10:26:59.633Z,0
2022-11-07T10:27:59.629Z,1.9000000000000001
2022-11-07T10:28:59.630Z,1
2022-11-07T10:29:59.632Z,1.7000000000000002
2022-11-07T10:30:59.637Z,0
2022-11-07T10:31:59.631Z,2.5
2022-11-07T10:32:59.633Z,0
2022-11-07T10:33:59.631Z,0
2022-11-07T10:34:59.632Z,3.1
2022-11-07T10:35:59.629Z,0.6000000000000001
2022-11-07T10:36:59.639Z,3.5
2022-11-07T10:37:59.637Z,0
2022-11-07T10:38:59.638Z,0
2022-11-07T10:39:59.639Z,0
2022-11-07T10:40:59.664Z,0
2022-11-07T10:41:59.633Z,2.1
2022-11-07T10:42:59.634Z,0
2022-11-07T10:43:59.631Z,0
2022-11-07T10:44:59.649Z,0
2022-11-07T10:45:59.661Z,0
2022-11-07T10:46:59.639Z,0
2022-11-07T10:47:59.635Z,0
2022-11-07T10:48:59.651Z,0
2022-11-07T10:49:59.629Z,0
2022-11-07T10:50:59.637Z,0
2022-11-07T10:51:59.635Z,0
2022-11-07T10:52:59.631Z,0
2022-11-07T10:53:59.639Z,0
2022-11-07T10:54:59.639Z,0
2022-11-07T10:55:59.630Z,0
2022-11-07T10:56:59.769Z,0
2022-11-07T10:57:59.661Z,0
2022-11-07T10:58:59.633Z,0
2022-11-07T10:59:59.636Z,0
2022-11-07T11:00:59.676Z,0
2022-11-07T11:01:59.684Z,0
2022-11-07T11:02:59.642Z,3.3000000000000003
2022-11-07T11:03:59.651Z,2.7
2022-11-07T11:04:59.644Z,3.2
2022-11-07T11:05:59.642Z,0
2022-11-07T11:06:59.644Z,2.7
2022-11-07T11:07:59.637Z,0
2022-11-07T11:08:59.641Z,0
2022-11-07T11:09:59.640Z,0
2022-11-07T11:10:59.637Z,0
2022-11-07T11:11:59.640Z,0
2022-11-07T11:12:59.654Z,0
2022-11-07T11:13:59.638Z,4.1000000000000005
2022-11-07T11:14:59.634Z,1.3
2022-11-07T11:16:04.360Z,0
2022-11-07T11:16:59.667Z,0
2022-11-07T11:17:59.638Z,2
2022-11-07T11:18:59.646Z,3
2022-11-07T11:19:59.646Z,3.5
2022-11-07T11:20:59.646Z,3
2022-11-07T11:21:59.636Z,3
2022-11-07T11:22:59.644Z,3.8000000000000003
2022-11-07T11:23:59.644Z,5
2022-11-07T11:24:59.641Z,2.6
2022-11-07T11:25:59.642Z,5.4
2022-11-07T11:26:59.640Z,0
2022-11-07T11:27:59.641Z,0
2022-11-07T11:28:59.667Z,0
2022-11-07T11:29:59.639Z,0
2022-11-07T11:30:59.646Z,0
2022-11-07T11:31:59.639Z,0
2022-11-07T11:32:59.642Z,0
2022-11-07T11:33:59.643Z,2.9000000000000004
2022-11-07T11:34:59.644Z,2.7
2022-11-07T11:35:59.643Z,0
2022-11-07T11:36:59.645Z,0
2022-11-07T11:37:59.648Z,0
2022-11-07T11:38:59.647Z,0
2022-11-07T11:39:59.637Z,0
2022-11-07T11:41:04.937Z,0
2022-11-07T11:41:59.647Z,0
2022-11-07T11:42:59.638Z,0
2022-11-07T11:43:59.651Z,0
2022-11-07T11:44:59.662Z,0
2022-11-07T11:45:59.646Z,0
2022-11-07T11:46:59.649Z,0
2022-11-07T11:47:59.643Z,0
2022-11-07T11:48:59.643Z,0
2022-11-07T11:49:59.650Z,0
2022-11-07T11:50:59.645Z,0
2022-11-07T11:51:59.658Z,0
2022-11-07T11:52:59.642Z,0
2022-11-07T11:53:59.648Z,0
2022-11-07T11:54:59.643Z,5.7
2022-11-07T11:55:59.643Z,0
2022-11-07T11:56:59.654Z,0
2022-11-07T11:57:59.642Z,0
2022-11-07T11:58:59.653Z,1.1
2022-11-07T11:59:59.651Z,1
2022-11-07T12:00:59.673Z,0
2022-11-07T12:01:59.703Z,0
2022-11-07T12:02:59.645Z,0
2022-11-07T12:04:02.377Z,0
2022-11-07T12:04:59.639Z,0
2022-11-07T12:05:59.647Z,0
2022-11-07T12:06:59.645Z,1.2000000000000002
2022-11-07T12:07:59.640Z,0
2022-11-07T12:08:59.643Z,0
2022-11-07T12:09:59.650Z,0
2022-11-07T12:10:59.639Z,0
2022-11-07T12:11:59.644Z,0
2022-11-07T12:12:59.646Z,0
2022-11-07T12:13:59.643Z,0
2022-11-07T12:14:59.638Z,0
2022-11-07T12:15:59.645Z,0
2022-11-07T12:16:59.662Z,0
2022-11-07T12:17:59.650Z,0
2022-11-07T12:18:59.644Z,0
2022-11-07T12:19:59.640Z,0
2022-11-07T12:20:59.641Z,0
2022-11-07T12:21:59.647Z,0
2022-11-07T12:22:59.644Z,0
2022-11-07T12:23:59.658Z,0
2022-11-07T12:24:59.642Z,0
2022-11-07T12:25:59.650Z,0
2022-11-07T12:26:59.648Z,0
2022-11-07T12:27:59.655Z,0
2022-11-07T12:28:59.649Z,0
2022-11-07T12:29:59.649Z,0
2022-11-07T12:30:59.637Z,0
2022-11-07T12:31:59.660Z,0
2022-11-07T12:32:59.670Z,0
2022-11-07T12:33:59.651Z,0
2022-11-07T12:34:59.651Z,0
2022-11-07T12:35:59.645Z,0
2022-11-07T12:36:59.657Z,0
2022-11-07T12:37:59.645Z,0
2022-11-07T12:38:59.649Z,0
2022-11-07T12:39:59.649Z,0
2022-11-07T12:40:59.661Z,0
2022-11-07T12:41:59.653Z,0
2022-11-07T12:43:00.102Z,5.4
2022-11-07T12:43:59.655Z,5
2022-11-07T12:44:59.648Z,5.7
2022-11-07T12:45:59.645Z,6
2022-11-07T12:46:59.653Z,2.1
2022-11-07T12:47:59.655Z,0
2022-11-07T12:48:59.673Z,4
2022-11-07T12:49:59.660Z,1.8
2022-11-07T12:50:59.650Z,0
2022-11-07T12:51:59.649Z,0
2022-11-07T12:52:59.649Z,0
2022-11-07T12:53:59.658Z,0
2022-11-07T12:54:59.654Z,0
2022-11-07T12:55:59.652Z,0
2022-11-07T12:56:59.654Z,0
2022-11-07T12:57:59.662Z,0
2022-11-07T12:58:59.658Z,0
2022-11-07T12:59:59.653Z,0
2022-11-07T13:00:59.686Z,0
2022-11-07T13:01:59.757Z,0
2022-11-07T13:02:59.657Z,0
2022-11-07T13:03:59.651Z,0
2022-11-07T13:04:59.785Z,0
2022-11-07T13:05:59.671Z,0
2022-11-07T13:06:59.675Z,0
2022-11-07T13:07:59.662Z,0
2022-11-07T13:08:59.657Z,0
2022-11-07T13:09:59.657Z,0
2022-11-07T13:10:59.656Z,0
2022-11-07T13:11:59.651Z,0
2022-11-07T13:12:59.656Z,0
2022-11-07T13:13:59.663Z,0
2022-11-07T13:14:59.660Z,0
2022-11-07T13:16:14.920Z,0
2022-11-07T13:16:59.657Z,0
2022-11-07T13:17:59.655Z,0
2022-11-07T13:18:59.668Z,0
2022-11-07T13:19:59.649Z,0
2022-11-07T13:20:59.670Z,0
2022-11-07T13:21:59.654Z,0
2022-11-07T13:22:59.659Z,0
2022-11-07T13:23:59.645Z,0
2022-11-07T13:25:04.556Z,0
2022-11-07T13:25:59.662Z,0
2022-11-07T13:26:59.661Z,0
2022-11-07T13:27:59.658Z,0
2022-11-07T13:28:59.657Z,0
2022-11-07T13:29:59.662Z,0
2022-11-07T13:31:03.653Z,0
2022-11-07T13:31:59.653Z,0
2022-11-07T13:32:59.654Z,0
2022-11-07T13:33:59.659Z,0
2022-11-07T13:34:59.667Z,0
2022-11-07T13:35:59.654Z,0
2022-11-07T13:36:59.683Z,0
2022-11-07T13:38:01.472Z,0
2022-11-07T13:38:59.658Z,0
2022-11-07T13:39:59.656Z,0
2022-11-07T13:40:59.651Z,0
2022-11-07T13:41:59.657Z,0
2022-11-07T13:42:59.662Z,0
2022-11-07T13:43:59.664Z,0
2022-11-07T13:44:59.655Z,0
2022-11-07T13:45:59.653Z,0
2022-11-07T13:46:59.655Z,0
2022-11-07T13:47:59.657Z,0
2022-11-07T13:48:59.685Z,0
2022-11-07T13:49:59.657Z,0
2022-11-07T13:50:59.654Z,0
2022-11-07T13:51:59.661Z,0
2022-11-07T13:52:59.674Z,0
2022-11-07T13:53:59.652Z,0
2022-11-07T13:54:59.661Z,3.4000000000000004
2022-11-07T13:55:59.652Z,5.4
2022-11-07T13:56:59.659Z,5.7
2022-11-07T13:57:59.659Z,4.9
2022-11-07T13:58:59.657Z,1.6
2022-11-07T13:59:59.789Z,0
2022-11-07T14:00:59.750Z,0
2022-11-07T14:01:59.796Z,0
2022-11-07T14:02:59.672Z,0
2022-11-07T14:03:59.659Z,0
2022-11-07T14:05:15.664Z,0
2022-11-07T14:05:59.661Z,0
2022-11-07T14:06:59.673Z,0
2022-11-07T14:07:59.656Z,0
2022-11-07T14:08:59.683Z,0
2022-11-07T14:09:59.664Z,0
2022-11-07T14:10:59.661Z,0